createdAt,value
2023-02-14T00:00:34.598Z,84.00
2023-02-14T00:03:05.042Z,83.39
2023-02-14T00:05:36.099Z,83.43
2023-02-14T00:08:06.583Z,83.32
2023-02-14T00:10:36.924Z,83.32
2023-02-14T00:13:07.253Z,83.11
2023-02-14T00:15:37.732Z,82.86
2023-02-14T00:18:08.141Z,82.87
2023-02-14T00:20:38.519Z,83.33
2023-02-14T00:23:08.927Z,83.40
2023-02-14T00:25:39.366Z,83.34
2023-02-14T00:28:09.729Z,83.15
2023-02-14T00:30:40.322Z,83.16
2023-02-14T00:33:10.675Z,83.50
2023-02-14T00:35:41.724Z,83.47
2023-02-14T00:38:12.113Z,83.82
2023-02-14T00:40:43.464Z,84.38
2023-02-14T00:43:13.790Z,84.16
2023-02-14T00:45:44.147Z,84.11
2023-02-14T00:48:15.156Z,84.54
2023-02-14T00:50:46.294Z,84.52
2023-02-14T00:53:17.035Z,84.37
2023-02-14T00:55:48.524Z,84.13
2023-02-14T00:58:18.842Z,84.15
2023-02-14T01:00:49.302Z,84.23
2023-02-14T01:03:19.807Z,84.61
2023-02-14T01:05:51.286Z,84.70
2023-02-14T01:08:22.222Z,84.75
2023-02-14T01:10:52.906Z,84.47
2023-02-14T01:13:23.474Z,84.67
2023-02-14T01:15:54.042Z,84.87
2023-02-14T01:18:24.374Z,84.95
2023-02-14T01:20:54.852Z,84.92
2023-02-14T01:23:25.146Z,84.78
2023-02-14T01:25:55.844Z,85.13
2023-02-14T01:28:26.284Z,84.95
2023-02-14T01:30:56.735Z,85.16
2023-02-14T01:33:27.236Z,85.32
2023-02-14T01:35:58.522Z,85.13
2023-02-14T01:38:28.888Z,85.15
2023-02-14T01:41:00.061Z,85.09
2023-02-14T01:43:30.714Z,85.24
2023-02-14T01:46:01.222Z,85.13
2023-02-14T01:48:31.619Z,84.96
2023-02-14T01:51:02.202Z,85.01
2023-02-14T01:53:32.918Z,85.24
2023-02-14T01:56:08.125Z,85.60
2023-02-14T01:58:40.629Z,85.71
2023-02-14T02:01:11.067Z,85.60
2023-02-14T02:03:43.825Z,85.61
2023-02-14T02:06:17.902Z,85.40
2023-02-14T02:08:51.952Z,85.40
2023-02-14T02:11:22.279Z,85.41
2023-02-14T02:13:52.662Z,85.49
2023-02-14T02:16:37.528Z,85.83
2023-02-14T02:19:36.097Z,86.05
2023-02-14T02:22:43.332Z,86.16
2023-02-14T02:25:21.860Z,86.18
2023-02-14T02:28:12.774Z,86.46
2023-02-14T02:30:59.142Z,86.38
2023-02-14T02:34:07.356Z,86.35
2023-02-14T02:36:53.892Z,86.54
2023-02-14T02:39:50.328Z,86.58
2023-02-14T02:42:28.558Z,86.57
2023-02-14T02:45:03.992Z,86.49
2023-02-14T02:47:37.050Z,86.52
2023-02-14T02:50:33.799Z,86.49
2023-02-14T02:53:08.158Z,86.50
2023-02-14T02:56:02.504Z,86.61
2023-02-14T02:58:38.362Z,86.95
2023-02-14T03:01:12.685Z,86.95
2023-02-14T03:04:03.031Z,86.93
2023-02-14T03:06:34.381Z,86.87
2023-02-14T03:09:17.545Z,86.88
2023-02-14T03:11:47.707Z,86.64
2023-02-14T03:14:22.092Z,86.46
2023-02-14T03:17:02.792Z,86.66
2023-02-14T03:20:02.619Z,86.70
2023-02-14T03:22:46.828Z,86.62
2023-02-14T03:25:23.997Z,87.03
2023-02-14T03:27:58.925Z,87.26
2023-02-14T03:30:42.173Z,87.13
2023-02-14T03:33:18.083Z,87.33
2023-02-14T03:35:52.527Z,87.66
2023-02-14T03:38:26.532Z,87.56
2023-02-14T03:40:59.912Z,87.29
2023-02-14T03:43:34.310Z,87.25
2023-02-14T03:46:08.480Z,87.20
2023-02-14T03:48:40.993Z,87.23
2023-02-14T03:51:13.287Z,87.35
2023-02-14T03:53:46.015Z,87.46
2023-02-14T03:56:18.621Z,87.52
2023-02-14T03:58:51.061Z,87.44
2023-02-14T04:01:22.750Z,87.42
2023-02-14T04:03:55.010Z,87.21
2023-02-14T04:06:25.622Z,87.30
2023-02-14T04:08:56.061Z,87.30
2023-02-14T04:11:26.463Z,87.21
2023-02-14T04:13:56.875Z,87.02
2023-02-14T04:16:27.422Z,86.93
2023-02-14T04:19:14.994Z,86.99
2023-02-14T04:21:45.248Z,87.20
2023-02-14T04:24:15.516Z,87.41
2023-02-14T04:26:54.058Z,87.85
2023-02-14T04:29:24.447Z,87.92
2023-02-14T04:31:54.861Z,87.91
2023-02-14T04:34:25.514Z,88.20
2023-02-14T04:36:55.887Z,88.43
2023-02-14T04:39:26.508Z,88.58
2023-02-14T04:41:56.890Z,88.79
2023-02-14T04:44:27.207Z,88.71
2023-02-14T04:46:57.625Z,88.54
2023-02-14T04:49:28.063Z,88.41
2023-02-14T04:51:58.418Z,88.35
2023-02-14T04:54:28.817Z,88.29
2023-02-14T04:56:59.075Z,88.40
2023-02-14T04:59:29.547Z,88.40
2023-02-14T05:01:59.940Z,88.49
2023-02-14T05:04:30.345Z,88.80
2023-02-14T05:07:00.902Z,88.89
2023-02-14T05:09:31.384Z,89.06
2023-02-14T05:12:01.638Z,89.02
2023-02-14T05:14:31.931Z,89.07
2023-02-14T05:17:02.225Z,88.89
2023-02-14T05:19:32.834Z,88.79
2023-02-14T05:22:03.131Z,88.75
2023-02-14T05:24:33.721Z,88.75
2023-02-14T05:27:04.065Z,88.79
2023-02-14T05:29:34.525Z,88.76
2023-02-14T05:32:05.077Z,88.71
2023-02-14T05:34:35.870Z,88.74
2023-02-14T05:37:06.183Z,88.68
2023-02-14T05:39:36.638Z,88.85
2023-02-14T05:42:07.019Z,88.91
2023-02-14T05:44:37.476Z,88.93
2023-02-14T05:47:07.859Z,88.86
2023-02-14T05:49:38.567Z,88.89
2023-02-14T05:52:09.231Z,88.81
2023-02-14T05:54:39.776Z,88.76
2023-02-14T05:57:10.089Z,88.89
2023-02-14T05:59:40.479Z,89.03
2023-02-14T06:02:11.032Z,89.13
2023-02-14T06:04:41.553Z,89.00
2023-02-14T06:07:11.863Z,88.89
2023-02-14T06:09:42.903Z,88.87
2023-02-14T06:12:13.179Z,88.85
2023-02-14T06:14:45.017Z,88.89
2023-02-14T06:17:15.320Z,88.79
2023-02-14T06:19:45.644Z,88.42
2023-02-14T06:22:16.124Z,88.03
2023-02-14T06:24:46.456Z,87.55
2023-02-14T06:27:16.874Z,87.32
2023-02-14T06:29:47.283Z,87.19
2023-02-14T06:32:17.887Z,87.23
2023-02-14T06:34:48.262Z,87.09
2023-02-14T06:37:20.037Z,86.78
2023-02-14T06:39:50.444Z,86.76
2023-02-14T06:42:20.792Z,86.69
2023-02-14T06:44:51.125Z,86.80
2023-02-14T06:47:21.748Z,87.06
2023-02-14T06:49:52.043Z,87.00
2023-02-14T06:52:22.500Z,86.91
2023-02-14T06:54:52.814Z,87.03
2023-02-14T06:57:23.122Z,87.09
2023-02-14T06:59:53.309Z,87.00
2023-02-14T07:02:25.128Z,86.81
2023-02-14T07:04:55.520Z,86.86
2023-02-14T07:07:25.727Z,87.02
2023-02-14T07:09:56.177Z,87.00
2023-02-14T07:12:26.373Z,86.97
2023-02-14T07:14:56.756Z,87.06
2023-02-14T07:17:27.074Z,87.24
2023-02-14T07:19:57.243Z,87.40
2023-02-14T07:22:29.497Z,87.39
2023-02-14T07:25:00.606Z,87.27
2023-02-14T07:27:30.846Z,87.24
2023-02-14T07:30:01.082Z,87.25
2023-02-14T07:32:31.325Z,87.36
2023-02-14T07:35:01.488Z,87.61
2023-02-14T07:37:32.545Z,87.87
2023-02-14T07:40:02.896Z,88.01
2023-02-14T07:42:33.179Z,87.91
2023-02-14T07:45:15.826Z,87.90
2023-02-14T07:47:51.992Z,87.86
2023-02-14T07:50:23.311Z,87.81
2023-02-14T07:52:53.796Z,87.95
2023-02-14T07:55:25.342Z,87.94
2023-02-14T07:57:55.636Z,87.82
2023-02-14T08:00:26.605Z,87.81
2023-02-14T08:02:57.305Z,87.84
2023-02-14T08:05:27.935Z,87.93
2023-02-14T08:07:58.286Z,88.06
2023-02-14T08:10:28.692Z,88.21
2023-02-14T08:13:03.449Z,88.32
2023-02-14T08:15:53.228Z,88.31
2023-02-14T08:18:24.411Z,88.25
2023-02-14T08:20:54.906Z,88.27
2023-02-14T08:23:25.668Z,88.28
2023-02-14T08:25:56.015Z,88.19
2023-02-14T08:28:26.754Z,88.15
2023-02-14T08:30:57.987Z,88.11
2023-02-14T08:33:29.208Z,88.06
2023-02-14T08:36:00.150Z,87.80
2023-02-14T08:38:31.231Z,87.77
2023-02-14T08:41:08.048Z,87.70
2023-02-14T08:43:39.148Z,87.71
2023-02-14T08:46:09.483Z,87.75
2023-02-14T08:48:39.929Z,87.38
2023-02-14T08:51:12.310Z,87.07
2023-02-14T08:53:43.585Z,87.12
2023-02-14T08:56:15.373Z,87.28
2023-02-14T08:58:45.638Z,87.30
2023-02-14T09:01:17.895Z,87.27
2023-02-14T09:03:48.233Z,87.23
2023-02-14T09:06:19.162Z,87.25
2023-02-14T09:08:49.757Z,87.30
2023-02-14T09:11:22.129Z,87.26
2023-02-14T09:13:54.046Z,87.21
2023-02-14T09:16:26.371Z,87.19
2023-02-14T09:18:56.830Z,87.42
2023-02-14T09:21:28.589Z,87.11
2023-02-14T09:23:59.289Z,87.05
2023-02-14T09:26:29.661Z,87.26
2023-02-14T09:29:00.031Z,87.20
2023-02-14T09:31:30.975Z,87.03
2023-02-14T09:34:18.966Z,87.09
2023-02-14T09:37:06.873Z,87.20
2023-02-14T09:39:38.589Z,87.31
2023-02-14T09:42:21.271Z,87.20
2023-02-14T09:44:55.071Z,86.85
2023-02-14T09:47:32.002Z,86.69
2023-02-14T09:50:03.431Z,86.33
2023-02-14T09:52:34.046Z,86.16
2023-02-14T09:55:05.863Z,85.98
2023-02-14T09:57:42.878Z,85.66
2023-02-14T10:00:21.972Z,85.29
2023-02-14T10:03:05.680Z,85.26
2023-02-14T10:05:39.283Z,85.41
2023-02-14T10:08:22.971Z,85.21
2023-02-14T10:11:03.663Z,85.07
2023-02-14T10:13:36.470Z,85.00
2023-02-14T10:16:06.452Z,84.91
2023-02-14T10:18:44.193Z,84.64
2023-02-14T10:21:17.378Z,84.73
2023-02-14T10:23:52.382Z,84.55
2023-02-14T10:26:27.470Z,84.68
2023-02-14T10:28:58.358Z,85.15
2023-02-14T10:31:32.275Z,85.46
2023-02-14T10:34:09.023Z,85.24
2023-02-14T10:36:49.213Z,84.83
2023-02-14T10:39:31.996Z,84.30
2023-02-14T10:42:08.125Z,83.85
2023-02-14T10:44:46.580Z,83.89
2023-02-14T10:47:31.150Z,83.87
2023-02-14T10:50:09.984Z,83.86
2023-02-14T10:52:45.046Z,83.88
2023-02-14T10:55:31.927Z,83.95
2023-02-14T10:58:06.026Z,83.73
2023-02-14T11:00:40.036Z,84.01
2023-02-14T11:03:14.038Z,84.02
2023-02-14T11:05:48.037Z,83.78
2023-02-14T11:08:26.645Z,83.40
2023-02-14T11:11:01.429Z,83.33
2023-02-14T11:13:36.309Z,83.30
2023-02-14T11:16:09.848Z,83.37
2023-02-14T11:18:42.625Z,83.29
2023-02-14T11:21:18.091Z,83.34
2023-02-14T11:23:53.113Z,83.25
2023-02-14T11:26:27.214Z,82.93
2023-02-14T11:29:02.084Z,82.65
2023-02-14T11:31:37.211Z,82.84
2023-02-14T11:34:17.230Z,82.85
2023-02-14T11:44:22.143Z,81.62
2023-02-14T11:46:54.422Z,81.29
2023-02-14T11:49:44.200Z,81.70
2023-02-14T11:52:26.798Z,81.74
2023-02-14T11:54:58.922Z,81.93
2023-02-14T11:57:33.066Z,81.90
2023-02-14T12:00:06.194Z,81.75
2023-02-14T12:02:44.608Z,81.92
2023-02-14T12:05:21.546Z,82.08
2023-02-14T12:07:52.869Z,82.38
2023-02-14T12:10:26.496Z,82.51
2023-02-14T12:12:59.320Z,82.24
2023-02-14T12:15:40.950Z,81.93
2023-02-14T12:18:37.048Z,82.36
2023-02-14T12:21:15.968Z,82.16
2023-02-14T12:23:51.642Z,82.05
2023-02-14T12:26:27.723Z,81.92
2023-02-14T12:29:05.361Z,81.64
2023-02-14T12:31:35.883Z,81.37
2023-02-14T12:34:07.475Z,81.53
2023-02-14T12:37:02.120Z,81.74
2023-02-14T12:39:39.178Z,81.94
2023-02-14T12:42:19.096Z,82.32
2023-02-14T12:44:59.047Z,82.03
2023-02-14T12:47:36.243Z,81.88
2023-02-14T12:50:16.721Z,81.90
2023-02-14T12:53:06.122Z,81.78
2023-02-14T12:55:44.991Z,82.05
2023-02-14T12:58:23.345Z,82.39
2023-02-14T13:01:01.925Z,82.34
2023-02-14T13:03:44.629Z,82.22
2023-02-14T13:06:20.275Z,82.37
2023-02-14T13:09:11.246Z,82.36
2023-02-14T13:11:48.492Z,82.34
2023-02-14T13:14:32.625Z,82.50
2023-02-14T13:17:08.835Z,82.29
2023-02-14T13:19:46.034Z,82.03
2023-02-14T13:22:19.265Z,82.44
2023-02-14T13:24:51.636Z,82.35
2023-02-14T13:27:24.355Z,82.21
2023-02-14T13:29:57.479Z,82.31
2023-02-14T13:32:29.751Z,82.06
2023-02-14T13:35:00.700Z,81.95
2023-02-14T13:37:32.200Z,82.16
2023-02-14T13:40:05.793Z,82.20
2023-02-14T13:42:55.088Z,82.17
2023-02-14T13:45:59.514Z,81.99
2023-02-14T13:48:30.931Z,81.96
2023-02-14T13:51:03.575Z,81.72
2023-02-14T13:53:37.740Z,81.68
2023-02-14T13:56:23.513Z,81.60
2023-02-14T13:58:55.926Z,81.83
2023-02-14T14:01:35.735Z,81.66
2023-02-14T14:04:08.315Z,81.82
2023-02-14T14:07:14.479Z,81.60
2023-02-14T14:10:05.416Z,81.52
2023-02-14T14:12:45.466Z,81.84
2023-02-14T14:15:18.906Z,82.11
2023-02-14T14:18:06.630Z,82.07
2023-02-14T14:20:45.329Z,81.99
2023-02-14T14:23:38.585Z,81.78
2023-02-14T14:26:34.726Z,81.53
2023-02-14T14:29:11.800Z,81.46
2023-02-14T14:31:43.124Z,81.36
2023-02-14T14:34:19.949Z,81.53
2023-02-14T14:36:50.684Z,81.47
2023-02-14T14:39:32.290Z,81.61
2023-02-14T14:42:10.195Z,81.48
2023-02-14T14:44:47.776Z,81.54
2023-02-14T14:47:20.619Z,81.47
2023-02-14T14:49:51.110Z,81.32
2023-02-14T14:52:39.621Z,81.23
2023-02-14T14:55:15.296Z,80.82
2023-02-14T14:57:52.072Z,80.92
2023-02-14T15:00:28.938Z,81.07
2023-02-14T15:03:05.499Z,81.26
2023-02-14T15:05:38.209Z,81.02
2023-02-14T15:08:21.003Z,80.96
2023-02-14T15:10:54.283Z,81.11
2023-02-14T15:13:48.238Z,81.29
2023-02-14T15:16:21.252Z,81.10
2023-02-14T15:18:53.748Z,81.33
2023-02-14T15:21:24.405Z,81.30
2023-02-14T15:23:55.207Z,81.23
2023-02-14T15:26:28.618Z,81.32
2023-02-14T15:29:01.694Z,81.78
2023-02-14T15:31:34.513Z,82.00
2023-02-14T15:34:05.941Z,81.80
2023-02-14T15:36:39.170Z,81.98
2023-02-14T15:39:12.006Z,82.31
2023-02-14T15:41:46.615Z,82.53
2023-02-14T15:44:22.822Z,82.33
2023-02-14T15:46:56.793Z,82.08
2023-02-14T15:49:33.903Z,81.92
2023-02-14T15:52:06.312Z,81.77
2023-02-14T15:54:39.619Z,81.54
2023-02-14T15:57:20.095Z,81.60
2023-02-14T15:59:50.590Z,81.46
2023-02-14T16:02:31.117Z,81.40
2023-02-14T16:05:09.108Z,81.40
2023-02-14T16:07:39.531Z,81.65
2023-02-14T16:10:27.122Z,81.76
2023-02-14T16:13:00.135Z,81.85
2023-02-14T16:15:32.799Z,82.01
2023-02-14T16:18:08.138Z,82.33
2023-02-14T16:20:46.893Z,82.72
2023-02-14T16:23:20.098Z,82.92
2023-02-14T16:25:49.003Z,83.15
2023-02-14T16:28:19.551Z,83.55
2023-02-14T16:30:55.822Z,83.70
2023-02-14T16:33:28.482Z,84.00
2023-02-14T16:36:06.206Z,84.18
2023-02-14T16:38:43.396Z,84.42
2023-02-14T16:41:18.828Z,84.57
2023-02-14T16:43:50.135Z,84.61
2023-02-14T16:46:22.938Z,84.70
2023-02-14T16:48:53.537Z,84.73
2023-02-14T16:51:25.168Z,84.97
2023-02-14T16:53:55.960Z,85.31
2023-02-14T16:56:29.649Z,85.53
2023-02-14T16:59:00.227Z,85.59
2023-02-14T17:01:32.215Z,85.66
2023-02-14T17:04:02.666Z,85.70
2023-02-14T17:06:34.911Z,85.75
2023-02-14T17:09:08.221Z,85.93
2023-02-14T17:11:40.990Z,86.15
2023-02-14T17:14:11.751Z,86.34
2023-02-14T17:16:42.226Z,86.51
2023-02-14T17:19:13.665Z,86.54
2023-02-14T17:21:44.175Z,86.57
2023-02-14T17:24:14.584Z,86.66
2023-02-14T17:26:45.571Z,86.76
2023-02-14T17:29:16.046Z,86.79
2023-02-14T17:31:46.433Z,86.78
2023-02-14T17:34:17.047Z,86.92
2023-02-14T17:36:47.305Z,86.87
2023-02-14T17:39:19.689Z,86.94
2023-02-14T17:41:50.646Z,87.03
2023-02-14T17:44:20.996Z,86.91
2023-02-14T17:46:53.346Z,86.89
2023-02-14T17:49:23.678Z,86.98
2023-02-14T17:51:54.615Z,86.82
2023-02-14T17:54:25.637Z,86.96
2023-02-14T17:56:56.018Z,86.99
2023-02-14T17:59:26.851Z,87.03
2023-02-14T18:01:57.167Z,86.90
2023-02-14T18:04:30.010Z,86.83
2023-02-14T18:07:00.313Z,87.19
2023-02-14T18:09:30.718Z,87.54
2023-02-14T18:12:01.155Z,87.57
2023-02-14T18:14:31.495Z,87.38
2023-02-14T18:17:01.815Z,87.33
2023-02-14T18:19:32.433Z,87.37
2023-02-14T18:22:02.778Z,87.41
2023-02-14T18:24:33.129Z,87.36
2023-02-14T18:27:05.457Z,87.28
2023-02-14T18:29:36.303Z,87.28
2023-02-14T18:32:07.028Z,87.35
2023-02-14T18:34:39.453Z,87.39
2023-02-14T18:37:09.726Z,87.35
2023-02-14T18:39:40.563Z,87.27
2023-02-14T18:42:10.965Z,87.12
2023-02-14T18:44:41.415Z,87.35
2023-02-14T18:47:12.301Z,87.54
2023-02-14T18:49:42.770Z,87.72
2023-02-14T18:52:13.102Z,87.87
2023-02-14T18:54:43.706Z,87.75
2023-02-14T18:57:13.969Z,87.98
2023-02-14T18:59:45.055Z,88.02
2023-02-14T19:02:15.316Z,87.77
2023-02-14T19:04:45.749Z,87.81
2023-02-14T19:07:16.028Z,87.87
2023-02-14T19:09:46.636Z,87.99
2023-02-14T19:12:16.928Z,87.96
2023-02-14T19:14:47.292Z,87.82
2023-02-14T19:17:18.223Z,87.81
2023-02-14T19:19:48.628Z,87.83
2023-02-14T19:22:18.959Z,87.88
2023-02-14T19:24:49.526Z,88.02
2023-02-14T19:27:21.476Z,88.20
2023-02-14T19:29:51.893Z,88.42
2023-02-14T19:32:22.336Z,88.50
2023-02-14T19:34:52.684Z,88.55
2023-02-14T19:37:23.220Z,88.66
2023-02-14T19:39:53.835Z,88.59
2023-02-14T19:42:24.187Z,88.54
2023-02-14T19:44:54.693Z,88.52
2023-02-14T19:47:39.891Z,88.67
2023-02-14T19:50:17.637Z,88.73
2023-02-14T19:52:47.999Z,88.90
2023-02-14T19:55:25.701Z,88.91
2023-02-14T19:57:57.519Z,88.88
2023-02-14T20:00:27.826Z,89.13
2023-02-14T20:02:58.204Z,89.33
2023-02-14T20:05:29.319Z,89.81
2023-02-14T20:07:59.609Z,90.14
2023-02-14T20:10:30.147Z,90.37
2023-02-14T20:13:00.437Z,90.35
2023-02-14T20:15:31.521Z,90.24
2023-02-14T20:18:02.235Z,90.20
2023-02-14T20:20:52.722Z,90.11
2023-02-14T20:23:23.187Z,89.86
2023-02-14T20:25:53.591Z,89.85
2023-02-14T20:28:23.851Z,89.77
2023-02-14T20:30:54.351Z,89.69
2023-02-14T20:33:24.861Z,89.49
2023-02-14T20:35:55.351Z,89.29
2023-02-14T20:38:25.746Z,89.15
2023-02-14T20:40:56.191Z,89.10
2023-02-14T20:43:27.194Z,88.96
2023-02-14T20:46:01.583Z,88.89
2023-02-14T20:48:32.025Z,88.79
2023-02-14T20:51:11.961Z,88.74
2023-02-14T20:53:43.334Z,88.65
2023-02-14T20:56:14.389Z,88.63
2023-02-14T20:58:44.958Z,88.73
2023-02-14T21:01:16.933Z,88.78
2023-02-14T21:03:50.790Z,88.79
2023-02-14T21:06:23.349Z,88.66
2023-02-14T21:08:54.166Z,88.56
2023-02-14T21:11:26.771Z,88.43
2023-02-14T21:13:59.728Z,88.39
2023-02-14T21:16:30.826Z,88.47
2023-02-14T21:19:01.824Z,88.41
2023-02-14T21:21:34.747Z,88.44
2023-02-14T21:24:07.269Z,88.36
2023-02-14T21:26:37.867Z,88.36
2023-02-14T21:29:08.624Z,88.40
2023-02-14T21:31:39.677Z,88.54
2023-02-14T21:34:10.277Z,88.72
2023-02-14T21:36:41.419Z,88.70
2023-02-14T21:39:11.778Z,88.78
2023-02-14T21:41:42.530Z,88.68
2023-02-14T21:44:33.151Z,88.63
2023-02-14T21:47:03.484Z,88.63
2023-02-14T21:49:51.641Z,88.63
2023-02-14T21:52:22.139Z,88.72
2023-02-14T21:54:52.769Z,88.84
2023-02-14T21:57:23.863Z,88.79
2023-02-14T21:59:54.174Z,88.91
2023-02-14T22:02:24.574Z,88.66
2023-02-14T22:04:55.229Z,88.67
2023-02-14T22:07:25.654Z,88.77
2023-02-14T22:09:56.080Z,89.06
2023-02-14T22:12:26.370Z,89.08
2023-02-14T22:15:00.106Z,89.11
2023-02-14T22:17:30.408Z,89.12
2023-02-14T22:20:00.714Z,89.02
2023-02-14T22:22:31.068Z,88.99
2023-02-14T22:25:01.406Z,89.08
2023-02-14T22:27:31.707Z,89.11
2023-02-14T22:30:02.060Z,89.11
2023-02-14T22:32:32.379Z,89.07
2023-02-14T22:35:03.146Z,89.10
2023-02-14T22:37:33.416Z,89.22
2023-02-14T22:40:04.063Z,89.40
2023-02-14T22:42:34.823Z,89.50
2023-02-14T22:45:05.224Z,89.38
2023-02-14T22:47:35.521Z,89.34
2023-02-14T22:50:06.260Z,89.37
2023-02-14T22:52:37.657Z,89.53
2023-02-14T22:55:10.048Z,89.73
2023-02-14T22:57:40.368Z,89.66
2023-02-14T23:00:12.334Z,89.59
2023-02-14T23:02:42.665Z,89.53
2023-02-14T23:05:13.033Z,89.59
2023-02-14T23:07:43.334Z,89.65
2023-02-14T23:10:13.973Z,89.61
2023-02-14T23:13:01.503Z,89.62
2023-02-14T23:15:49.479Z,89.70
2023-02-14T23:18:37.442Z,89.49
2023-02-14T23:21:29.365Z,89.48
2023-02-14T23:23:59.725Z,89.55
2023-02-14T23:26:30.095Z,89.65
2023-02-14T23:29:00.874Z,89.91
2023-02-14T23:31:31.239Z,89.72
2023-02-14T23:34:01.594Z,89.72
2023-02-14T23:36:33.076Z,89.75
2023-02-14T23:39:03.393Z,89.83
2023-02-14T23:41:48.401Z,89.63
2023-02-14T23:44:20.271Z,89.68
2023-02-14T23:46:51.656Z,89.84
2023-02-14T23:49:22.532Z,89.79
2023-02-14T23:51:53.906Z,89.87
2023-02-14T23:54:25.743Z,89.88
2023-02-14T23:56:57.412Z,89.81
2023-02-14T23:59:27.893Z,89.89
